sensor_id;sensor_type;location;lat;lon;timestamp;pressure;altitude;pressure_sealevel;temperature;humidity
38038;BME280;23843;51.320;12.340;2022-08-21T04:32:42;100403.63;;;19.61;87.60
38038;BME280;23843;51.320;12.340;2022-08-21T04:35:09;100406.16;;;19.62;88.36
38038;BME280;23843;51.320;12.340;2022-08-21T04:37:35;100405.19;;;19.63;88.09
38038;BME280;23843;51.320;12.340;2022-08-21T04:40:00;100413.09;;;19.65;87.78
38038;BME280;23843;51.320;12.340;2022-08-21T04:42:27;100415.66;;;19.66;88.02
38038;BME280;23843;51.320;12.340;2022-08-21T04:44:52;100412.13;;;19.66;88.04
38038;BME280;23843;51.320;12.340;2022-08-21T04:47:18;100413.72;;;19.69;88.39
38038;BME280;23843;51.320;12.340;2022-08-21T04:49:45;100417.63;;;19.64;87.24
38038;BME280;23843;51.320;12.340;2022-08-21T04:52:11;100416.66;;;19.65;87.83
38038;BME280;23843;51.320;12.340;2022-08-21T04:54:38;100418.47;;;19.65;87.89
38038;BME280;23843;51.320;12.340;2022-08-21T04:57:06;100416.66;;;19.65;88.27
38038;BME280;23843;51.320;12.340;2022-08-21T04:59:36;100414.44;;;19.71;87.99
38038;BME280;23843;51.320;12.340;2022-08-21T05:02:04;100427.00;;;19.80;87.82
38038;BME280;23843;51.320;12.340;2022-08-21T05:04:33;100425.03;;;19.82;87.61
38038;BME280;23843;51.320;12.340;2022-08-21T05:07:04;100423.63;;;19.78;87.80
38038;BME280;23843;51.320;12.340;2022-08-21T05:09:30;100424.19;;;19.72;88.33
38038;BME280;23843;51.320;12.340;2022-08-21T05:11:56;100429.41;;;19.73;88.39
38038;BME280;23843;51.320;12.340;2022-08-21T05:14:22;100432.66;;;19.77;88.63
38038;BME280;23843;51.320;12.340;2022-08-21T05:16:47;100438.75;;;19.79;88.12
38038;BME280;23843;51.320;12.340;2022-08-21T05:19:13;100434.78;;;19.73;88.19
38038;BME280;23843;51.320;12.340;2022-08-21T05:21:40;100437.06;;;19.78;89.14
38038;BME280;23843;51.320;12.340;2022-08-21T05:24:08;100436.91;;;19.79;88.56
38038;BME280;23843;51.320;12.340;2022-08-21T05:26:34;100436.78;;;19.81;87.98
38038;BME280;23843;51.320;12.340;2022-08-21T05:28:59;100445.69;;;19.81;88.07
38038;BME280;23843;51.320;12.340;2022-08-21T05:31:24;100440.03;;;19.84;88.39
38038;BME280;23843;51.320;12.340;2022-08-21T05:33:50;100436.91;;;19.89;87.84
38038;BME280;23843;51.320;12.340;2022-08-21T05:36:16;100437.19;;;19.96;87.59
38038;BME280;23843;51.320;12.340;2022-08-21T05:38:42;100437.06;;;19.97;86.59
38038;BME280;23843;51.320;12.340;2022-08-21T05:41:09;100438.75;;;19.98;86.26
38038;BME280;23843;51.320;12.340;2022-08-21T05:43:34;100440.44;;;19.99;86.37
38038;BME280;23843;51.320;12.340;2022-08-21T05:46:00;100442.72;;;20.04;86.41
38038;BME280;23843;51.320;12.340;2022-08-21T05:48:25;100437.91;;;20.07;86.67
38038;BME280;23843;51.320;12.340;2022-08-21T05:50:52;100439.59;;;20.08;86.65
38038;BME280;23843;51.320;12.340;2022-08-21T05:53:18;100437.63;;;20.10;85.80
38038;BME280;23843;51.320;12.340;2022-08-21T05:55:45;100436.78;;;20.10;85.38
38038;BME280;23843;51.320;12.340;2022-08-21T05:58:12;100438.63;;;20.09;84.66
38038;BME280;23843;51.320;12.340;2022-08-21T06:00:38;100432.66;;;20.16;84.20
38038;BME280;23843;51.320;12.340;2022-08-21T06:03:03;100441.72;;;20.24;84.72
38038;BME280;23843;51.320;12.340;2022-08-21T06:05:29;100426.28;;;20.36;84.60
38038;BME280;23843;51.320;12.340;2022-08-21T06:07:54;100432.63;;;20.45;83.46
38038;BME280;23843;51.320;12.340;2022-08-21T06:10:20;100435.91;;;20.58;83.71
38038;BME280;23843;51.320;12.340;2022-08-21T06:12:45;100433.84;;;20.70;83.17
38038;BME280;23843;51.320;12.340;2022-08-21T06:15:12;100441.94;;;20.70;82.32
38038;BME280;23843;51.320;12.340;2022-08-21T06:17:37;100442.19;;;20.77;82.79
38038;BME280;23843;51.320;12.340;2022-08-21T06:20:03;100443.28;;;20.93;82.58
38038;BME280;23843;51.320;12.340;2022-08-21T06:22:29;100442.25;;;20.94;82.51
38038;BME280;23843;51.320;12.340;2022-08-21T06:24:54;100447.41;;;20.88;82.26
38038;BME280;23843;51.320;12.340;2022-08-21T06:27:20;100450.13;;;20.78;82.82
38038;BME280;23843;51.320;12.340;2022-08-21T06:29:45;100451.72;;;20.71;84.14
38038;BME280;23843;51.320;12.340;2022-08-21T06:32:12;100453.97;;;20.76;84.38
38038;BME280;23843;51.320;12.340;2022-08-21T06:34:38;100455.63;;;20.86;83.28
38038;BME280;23843;51.320;12.340;2022-08-21T06:37:04;100459.56;;;20.92;82.94
38038;BME280;23843;51.320;12.340;2022-08-21T06:39:30;100467.50;;;20.93;82.70
38038;BME280;23843;51.320;12.340;2022-08-21T06:41:55;100465.63;;;21.04;82.54
38038;BME280;23843;51.320;12.340;2022-08-21T06:44:21;100467.19;;;20.97;81.44
38038;BME280;23843;51.320;12.340;2022-08-21T06:46:46;100468.22;;;20.95;83.00
38038;BME280;23843;51.320;12.340;2022-08-21T06:49:13;100470.16;;;21.03;81.87
38038;BME280;23843;51.320;12.340;2022-08-21T06:51:39;100470.59;;;20.99;79.95
38038;BME280;23843;51.320;12.340;2022-08-21T06:54:04;100466.50;;;20.94;80.33
38038;BME280;23843;51.320;12.340;2022-08-21T06:56:30;100468.38;;;20.84;78.55
38038;BME280;23843;51.320;12.340;2022-08-21T06:58:55;100464.72;;;20.85;80.72
38038;BME280;23843;51.320;12.340;2022-08-21T07:01:23;100465.06;;;21.00;80.27
38038;BME280;23843;51.320;12.340;2022-08-21T07:03:49;100458.94;;;21.08;79.11
38038;BME280;23843;51.320;12.340;2022-08-21T07:06:16;100458.53;;;21.03;80.73
38038;BME280;23843;51.320;12.340;2022-08-21T07:08:41;100461.63;;;21.08;79.79
38038;BME280;23843;51.320;12.340;2022-08-21T07:11:11;100459.56;;;21.29;79.29
38038;BME280;23843;51.320;12.340;2022-08-21T07:13:38;100460.00;;;21.52;79.03
38038;BME280;23843;51.320;12.340;2022-08-21T07:16:03;100462.13;;;21.76;79.30
38038;BME280;23843;51.320;12.340;2022-08-21T07:18:29;100455.25;;;22.18;77.21
38038;BME280;23843;51.320;12.340;2022-08-21T07:20:54;100457.41;;;22.50;75.65
38038;BME280;23843;51.320;12.340;2022-08-21T07:23:23;100463.72;;;22.59;73.91
38038;BME280;23843;51.320;12.340;2022-08-21T07:25:50;100461.41;;;22.72;71.16
38038;BME280;23843;51.320;12.340;2022-08-21T07:28:15;100460.00;;;22.86;73.18
38038;BME280;23843;51.320;12.340;2022-08-21T07:30:41;100460.91;;;22.95;69.29
38038;BME280;23843;51.320;12.340;2022-08-21T07:33:06;100460.50;;;22.90;71.28
38038;BME280;23843;51.320;12.340;2022-08-21T07:35:31;100455.91;;;23.08;71.10
38038;BME280;23843;51.320;12.340;2022-08-21T07:37:57;100464.06;;;23.16;70.82
38038;BME280;23843;51.320;12.340;2022-08-21T07:40:24;100461.91;;;23.28;70.22
38038;BME280;23843;51.320;12.340;2022-08-21T07:42:49;100458.09;;;23.47;69.66
38038;BME280;23843;51.320;12.340;2022-08-21T07:45:15;100458.16;;;23.71;69.22
38038;BME280;23843;51.320;12.340;2022-08-21T07:47:41;100456.28;;;23.64;69.46
38038;BME280;23843;51.320;12.340;2022-08-21T07:50:07;100453.88;;;23.53;67.86
38038;BME280;23843;51.320;12.340;2022-08-21T07:52:33;100451.66;;;23.40;66.97
38038;BME280;23843;51.320;12.340;2022-08-21T07:54:58;100447.84;;;23.16;68.71
38038;BME280;23843;51.320;12.340;2022-08-21T07:57:25;100448.44;;;23.02;68.24
38038;BME280;23843;51.320;12.340;2022-08-21T07:59:51;100436.09;;;22.99;70.53
38038;BME280;23843;51.320;12.340;2022-08-21T08:02:22;100449.38;;;23.19;69.41
38038;BME280;23843;51.320;12.340;2022-08-21T08:04:48;100443.00;;;23.28;67.42
38038;BME280;23843;51.320;12.340;2022-08-21T08:07:13;100440.00;;;23.47;68.51
38038;BME280;23843;51.320;12.340;2022-08-21T08:09:39;100443.84;;;23.79;67.77
38038;BME280;23843;51.320;12.340;2022-08-21T08:12:04;100441.13;;;23.79;66.85
38038;BME280;23843;51.320;12.340;2022-08-21T08:14:31;100438.94;;;23.83;67.32
38038;BME280;23843;51.320;12.340;2022-08-21T08:16:57;100431.69;;;24.16;66.16
38038;BME280;23843;51.320;12.340;2022-08-21T08:19:22;100430.19;;;24.46;65.18
38038;BME280;23843;51.320;12.340;2022-08-21T08:21:47;100434.38;;;24.41;64.53
38038;BME280;23843;51.320;12.340;2022-08-21T08:24:13;100447.94;;;24.24;64.96
38038;BME280;23843;51.320;12.340;2022-08-21T08:26:38;100443.34;;;24.25;65.25
38038;BME280;23843;51.320;12.340;2022-08-21T08:29:04;100443.03;;;24.20;65.10
38038;BME280;23843;51.320;12.340;2022-08-21T08:31:30;100446.25;;;24.07;63.68
38038;BME280;23843;51.320;12.340;2022-08-21T08:33:56;100452.66;;;24.06;65.04
38038;BME280;23843;51.320;12.340;2022-08-21T08:36:32;100438.44;;;24.04;61.51
38038;BME280;23843;51.320;12.340;2022-08-21T08:38:57;100441.50;;;23.92;60.64
38038;BME280;23843;51.320;12.340;2022-08-21T08:41:23;100439.81;;;24.00;59.56
38038;BME280;23843;51.320;12.340;2022-08-21T08:46:19;100441.13;;;24.69;60.29
38038;BME280;23843;51.320;12.340;2022-08-21T08:48:50;100436.19;;;25.29;60.96
38038;BME280;23843;51.320;12.340;2022-08-21T08:51:19;100430.13;;;26.27;58.52
38038;BME280;23843;51.320;12.340;2022-08-21T08:53:51;100433.59;;;27.33;54.32
38038;BME280;23843;51.320;12.340;2022-08-21T08:56:20;100429.63;;;27.72;53.17
38038;BME280;23843;51.320;12.340;2022-08-21T08:58:47;100431.91;;;28.33;46.76
38038;BME280;23843;51.320;12.340;2022-08-21T09:01:16;100423.47;;;29.19;50.82
38038;BME280;23843;51.320;12.340;2022-08-21T09:03:42;100432.19;;;29.42;47.49
38038;BME280;23843;51.320;12.340;2022-08-21T09:06:16;100431.88;;;28.83;38.31
38038;BME280;23843;51.320;12.340;2022-08-21T09:08:52;100428.78;;;28.36;35.88
38038;BME280;23843;51.320;12.340;2022-08-21T09:11:23;100430.41;;;28.52;41.61
38038;BME280;23843;51.320;12.340;2022-08-21T09:13:57;100434.06;;;29.00;42.83
38038;BME280;23843;51.320;12.340;2022-08-21T09:16:30;100420.59;;;30.22;43.66
38038;BME280;23843;51.320;12.340;2022-08-21T09:19:07;100422.72;;;30.46;37.35
38038;BME280;23843;51.320;12.340;2022-08-21T09:21:41;100413.00;;;30.70;37.11
38038;BME280;23843;51.320;12.340;2022-08-21T09:24:29;100425.19;;;30.21;32.23
38038;BME280;23843;51.320;12.340;2022-08-21T09:27:02;100423.94;;;29.97;35.53
38038;BME280;23843;51.320;12.340;2022-08-21T09:31:55;100426.06;;;30.15;36.34
38038;BME280;23843;51.320;12.340;2022-08-21T09:34:25;100422.25;;;30.03;38.45
38038;BME280;23843;51.320;12.340;2022-08-21T09:36:53;100424.97;;;29.76;38.45
38038;BME280;23843;51.320;12.340;2022-08-21T09:39:25;100416.59;;;29.30;35.07
38038;BME280;23843;51.320;12.340;2022-08-21T09:41:56;100423.31;;;28.08;36.45
38038;BME280;23843;51.320;12.340;2022-08-21T09:44:25;100422.06;;;27.46;38.18
38038;BME280;23843;51.320;12.340;2022-08-21T09:46:51;100425.38;;;27.26;40.84
38038;BME280;23843;51.320;12.340;2022-08-21T09:49:26;100429.06;;;27.77;43.26
38038;BME280;23843;51.320;12.340;2022-08-21T09:51:54;100423.91;;;28.03;38.90
38038;BME280;23843;51.320;12.340;2022-08-21T09:54:26;100418.16;;;27.55;39.10
38038;BME280;23843;51.320;12.340;2022-08-21T09:56:55;100432.94;;;27.46;41.45
38038;BME280;23843;51.320;12.340;2022-08-21T09:59:26;100424.22;;;27.36;40.06
38038;BME280;23843;51.320;12.340;2022-08-21T10:01:52;100425.94;;;27.22;39.77
38038;BME280;23843;51.320;12.340;2022-08-21T10:04:23;100426.75;;;27.07;42.18
38038;BME280;23843;51.320;12.340;2022-08-21T10:06:49;100425.28;;;27.20;42.72
38038;BME280;23843;51.320;12.340;2022-08-21T10:09:18;100419.81;;;27.35;44.16
38038;BME280;23843;51.320;12.340;2022-08-21T10:11:50;100419.53;;;27.29;42.62
38038;BME280;23843;51.320;12.340;2022-08-21T10:14:23;100423.47;;;27.12;39.83
38038;BME280;23843;51.320;12.340;2022-08-21T10:17:00;100423.13;;;26.85;41.84
38038;BME280;23843;51.320;12.340;2022-08-21T10:19:33;100424.13;;;26.99;44.07
38038;BME280;23843;51.320;12.340;2022-08-21T10:22:11;100419.09;;;26.66;40.34
38038;BME280;23843;51.320;12.340;2022-08-21T10:24:46;100420.47;;;26.77;42.69
38038;BME280;23843;51.320;12.340;2022-08-21T10:27:20;100418.41;;;26.79;42.23
38038;BME280;23843;51.320;12.340;2022-08-21T10:29:54;100421.91;;;26.73;40.28
38038;BME280;23843;51.320;12.340;2022-08-21T10:32:33;100424.34;;;26.68;38.96
38038;BME280;23843;51.320;12.340;2022-08-21T10:35:08;100417.53;;;26.49;40.96
38038;BME280;23843;51.320;12.340;2022-08-21T10:37:44;100412.91;;;26.20;38.63
38038;BME280;23843;51.320;12.340;2022-08-21T10:40:22;100414.06;;;26.02;40.88
38038;BME280;23843;51.320;12.340;2022-08-21T10:42:58;100412.44;;;25.93;40.16
38038;BME280;23843;51.320;12.340;2022-08-21T10:45:36;100413.88;;;26.04;43.61
38038;BME280;23843;51.320;12.340;2022-08-21T10:48:05;100406.88;;;26.10;42.99
38038;BME280;23843;51.320;12.340;2022-08-21T10:50:34;100406.41;;;26.21;41.91
38038;BME280;23843;51.320;12.340;2022-08-21T10:53:11;100396.72;;;26.26;43.49
38038;BME280;23843;51.320;12.340;2022-08-21T10:55:45;100399.63;;;26.40;44.56
38038;BME280;23843;51.320;12.340;2022-08-21T10:58:19;100402.38;;;26.55;42.35
38038;BME280;23843;51.320;12.340;2022-08-21T11:00:48;100406.28;;;26.52;43.94
38038;BME280;23843;51.320;12.340;2022-08-21T11:03:18;100408.16;;;26.52;44.39
38038;BME280;23843;51.320;12.340;2022-08-21T11:05:50;100398.00;;;26.54;41.25
38038;BME280;23843;51.320;12.340;2022-08-21T11:08:21;100392.16;;;26.42;41.48
38038;BME280;23843;51.320;12.340;2022-08-21T11:10:51;100394.31;;;26.09;41.72
38038;BME280;23843;51.320;12.340;2022-08-21T11:13:24;100395.34;;;26.08;43.41
38038;BME280;23843;51.320;12.340;2022-08-21T11:15:56;100387.66;;;26.11;44.00
38038;BME280;23843;51.320;12.340;2022-08-21T11:18:24;100393.59;;;26.15;44.28
38038;BME280;23843;51.320;12.340;2022-08-21T11:21:01;100397.69;;;26.11;43.60
38038;BME280;23843;51.320;12.340;2022-08-21T11:23:33;100393.59;;;26.15;45.13
38038;BME280;23843;51.320;12.340;2022-08-21T11:26:07;100385.00;;;26.26;44.78
38038;BME280;23843;51.320;12.340;2022-08-21T11:28:36;100390.81;;;26.38;45.16
38038;BME280;23843;51.320;12.340;2022-08-21T11:31:12;100398.97;;;26.38;41.97
38038;BME280;23843;51.320;12.340;2022-08-21T11:33:48;100384.63;;;26.29;43.38
38038;BME280;23843;51.320;12.340;2022-08-21T11:36:24;100381.25;;;26.27;40.01
38038;BME280;23843;51.320;12.340;2022-08-21T11:38:57;100379.66;;;26.18;43.00
38038;BME280;23843;51.320;12.340;2022-08-21T11:41:31;100374.13;;;26.26;42.99
38038;BME280;23843;51.320;12.340;2022-08-21T11:44:07;100368.81;;;26.33;42.15
38038;BME280;23843;51.320;12.340;2022-08-21T11:46:40;100367.03;;;26.25;41.31
38038;BME280;23843;51.320;12.340;2022-08-21T11:49:24;100362.69;;;26.16;41.56
38038;BME280;23843;51.320;12.340;2022-08-21T11:51:56;100367.78;;;25.96;40.49
38038;BME280;23843;51.320;12.340;2022-08-21T11:54:31;100362.28;;;25.81;41.71
38038;BME280;23843;51.320;12.340;2022-08-21T11:57:04;100363.81;;;25.60;39.67
38038;BME280;23843;51.320;12.340;2022-08-21T11:59:36;100369.50;;;25.51;42.67
38038;BME280;23843;51.320;12.340;2022-08-21T12:02:09;100364.91;;;25.51;44.01
38038;BME280;23843;51.320;12.340;2022-08-21T12:04:44;100359.41;;;25.59;43.66
38038;BME280;23843;51.320;12.340;2022-08-21T12:07:11;100362.50;;;25.56;43.25
38038;BME280;23843;51.320;12.340;2022-08-21T12:09:38;100356.31;;;25.62;43.01
38038;BME280;23843;51.320;12.340;2022-08-21T12:12:10;100364.34;;;25.79;43.17
38038;BME280;23843;51.320;12.340;2022-08-21T12:14:38;100357.88;;;25.80;41.82
38038;BME280;23843;51.320;12.340;2022-08-21T12:17:06;100359.22;;;25.61;42.59
38038;BME280;23843;51.320;12.340;2022-08-21T12:19:31;100355.91;;;25.74;42.79
38038;BME280;23843;51.320;12.340;2022-08-21T12:21:59;100353.50;;;25.79;41.84
38038;BME280;23843;51.320;12.340;2022-08-21T12:24:33;100355.16;;;25.88;42.05
38038;BME280;23843;51.320;12.340;2022-08-21T12:27:19;100355.56;;;26.00;42.32
38038;BME280;23843;51.320;12.340;2022-08-21T12:29:47;100349.00;;;26.09;41.84
38038;BME280;23843;51.320;12.340;2022-08-21T12:32:24;100352.75;;;26.08;41.03
38038;BME280;23843;51.320;12.340;2022-08-21T12:34:52;100350.72;;;26.10;40.77
38038;BME280;23843;51.320;12.340;2022-08-21T12:37:24;100348.63;;;25.97;40.29
38038;BME280;23843;51.320;12.340;2022-08-21T12:39:57;100341.19;;;25.91;39.87
38038;BME280;23843;51.320;12.340;2022-08-21T12:42:31;100349.81;;;25.72;39.46
38038;BME280;23843;51.320;12.340;2022-08-21T12:45:00;100340.66;;;25.50;39.86
38038;BME280;23843;51.320;12.340;2022-08-21T12:47:30;100343.91;;;25.45;40.41
38038;BME280;23843;51.320;12.340;2022-08-21T12:50:00;100349.41;;;25.37;40.36
38038;BME280;23843;51.320;12.340;2022-08-21T12:52:30;100346.00;;;25.35;40.51
38038;BME280;23843;51.320;12.340;2022-08-21T12:54:57;100346.69;;;25.37;40.54
38038;BME280;23843;51.320;12.340;2022-08-21T12:57:26;100345.72;;;25.30;40.61
38038;BME280;23843;51.320;12.340;2022-08-21T12:59:53;100349.63;;;25.27;40.41
38038;BME280;23843;51.320;12.340;2022-08-21T13:02:21;100343.25;;;25.12;40.74
38038;BME280;23843;51.320;12.340;2022-08-21T13:04:48;100346.50;;;25.07;40.77
38038;BME280;23843;51.320;12.340;2022-08-21T13:07:16;100342.97;;;24.98;41.49
38038;BME280;23843;51.320;12.340;2022-08-21T13:09:49;100340.75;;;25.02;41.27
38038;BME280;23843;51.320;12.340;2022-08-21T13:12:17;100340.41;;;24.97;41.06
38038;BME280;23843;51.320;12.340;2022-08-21T13:14:46;100330.31;;;24.91;40.68
38038;BME280;23843;51.320;12.340;2022-08-21T13:17:12;100335.41;;;24.86;41.27
38038;BME280;23843;51.320;12.340;2022-08-21T13:19:37;100335.38;;;24.94;42.30
38038;BME280;23843;51.320;12.340;2022-08-21T13:22:03;100325.03;;;24.97;40.32
38038;BME280;23843;51.320;12.340;2022-08-21T13:24:31;100330.09;;;25.01;41.06
38038;BME280;23843;51.320;12.340;2022-08-21T13:26:57;100326.34;;;25.02;40.15
38038;BME280;23843;51.320;12.340;2022-08-21T13:29:28;100329.56;;;25.05;41.67
38038;BME280;23843;51.320;12.340;2022-08-21T13:31:58;100330.72;;;25.11;40.35
38038;BME280;23843;51.320;12.340;2022-08-21T13:34:25;100324.09;;;25.13;41.14
38038;BME280;23843;51.320;12.340;2022-08-21T13:36:56;100322.44;;;25.35;42.73
38038;BME280;23843;51.320;12.340;2022-08-21T13:39:23;100324.38;;;25.50;42.74
38038;BME280;23843;51.320;12.340;2022-08-21T13:41:51;100322.09;;;25.61;43.10
38038;BME280;23843;51.320;12.340;2022-08-21T13:44:20;100319.47;;;25.53;41.67
38038;BME280;23843;51.320;12.340;2022-08-21T13:46:48;100323.53;;;25.49;41.24
38038;BME280;23843;51.320;12.340;2022-08-21T13:49:16;100319.78;;;25.50;40.87
38038;BME280;23843;51.320;12.340;2022-08-21T13:51:43;100321.19;;;25.46;39.89
38038;BME280;23843;51.320;12.340;2022-08-21T13:54:22;100316.41;;;25.25;39.33
38038;BME280;23843;51.320;12.340;2022-08-21T13:56:48;100311.84;;;25.26;41.44
38038;BME280;23843;51.320;12.340;2022-08-21T13:59:23;100312.44;;;25.36;41.82
38038;BME280;23843;51.320;12.340;2022-08-21T14:01:51;100313.91;;;25.47;41.79
38038;BME280;23843;51.320;12.340;2022-08-21T14:04:23;100315.72;;;25.54;40.43
38038;BME280;23843;51.320;12.340;2022-08-21T14:06:50;100312.94;;;25.39;39.80
38038;BME280;23843;51.320;12.340;2022-08-21T14:09:23;100317.56;;;25.31;41.22
38038;BME280;23843;51.320;12.340;2022-08-21T14:11:52;100314.75;;;25.24;40.13
38038;BME280;23843;51.320;12.340;2022-08-21T14:14:22;100319.59;;;25.29;41.31
38038;BME280;23843;51.320;12.340;2022-08-21T14:16:54;100321.72;;;25.18;39.68
38038;BME280;23843;51.320;12.340;2022-08-21T14:19:24;100321.13;;;25.00;39.48
38038;BME280;23843;51.320;12.340;2022-08-21T14:21:50;100315.91;;;24.90;40.68
38038;BME280;23843;51.320;12.340;2022-08-21T14:24:26;100314.53;;;24.94;41.21
38038;BME280;23843;51.320;12.340;2022-08-21T14:26:54;100304.56;;;24.95;41.24
38038;BME280;23843;51.320;12.340;2022-08-21T14:29:22;100305.91;;;24.91;41.34
38038;BME280;23843;51.320;12.340;2022-08-21T14:31:51;100303.22;;;24.91;41.63
38038;BME280;23843;51.320;12.340;2022-08-21T14:34:16;100301.91;;;24.78;40.52
38038;BME280;23843;51.320;12.340;2022-08-21T14:36:43;100303.38;;;24.58;41.06
38038;BME280;23843;51.320;12.340;2022-08-21T14:39:09;100300.16;;;24.54;41.55
38038;BME280;23843;51.320;12.340;2022-08-21T14:41:35;100301.00;;;24.55;40.71
38038;BME280;23843;51.320;12.340;2022-08-21T14:44:01;100306.09;;;24.50;41.08
38038;BME280;23843;51.320;12.340;2022-08-21T14:46:29;100293.59;;;24.49;41.51
38038;BME280;23843;51.320;12.340;2022-08-21T14:48:55;100298.47;;;24.53;41.36
38038;BME280;23843;51.320;12.340;2022-08-21T14:51:21;100303.22;;;24.51;41.02
38038;BME280;23843;51.320;12.340;2022-08-21T14:53:48;100297.81;;;24.51;41.78
38038;BME280;23843;51.320;12.340;2022-08-21T14:56:13;100306.72;;;24.60;41.89
38038;BME280;23843;51.320;12.340;2022-08-21T14:58:41;100309.59;;;24.67;40.65
38038;BME280;23843;51.320;12.340;2022-08-21T15:01:09;100299.59;;;24.67;41.10
38038;BME280;23843;51.320;12.340;2022-08-21T15:03:35;100291.81;;;24.64;41.55
38038;BME280;23843;51.320;12.340;2022-08-21T15:06:02;100292.13;;;24.69;41.03
38038;BME280;23843;51.320;12.340;2022-08-21T15:08:28;100294.31;;;24.74;41.86
38038;BME280;23843;51.320;12.340;2022-08-21T15:10:55;100292.13;;;24.77;41.35
38038;BME280;23843;51.320;12.340;2022-08-21T15:13:21;100286.69;;;24.77;41.29
38038;BME280;23843;51.320;12.340;2022-08-21T15:15:48;100282.13;;;24.78;41.71
38038;BME280;23843;51.320;12.340;2022-08-21T15:18:14;100275.97;;;24.84;42.06
38038;BME280;23843;51.320;12.340;2022-08-21T15:20:39;100274.91;;;24.93;41.96
38038;BME280;23843;51.320;12.340;2022-08-21T15:23:06;100277.44;;;24.95;41.54
38038;BME280;23843;51.320;12.340;2022-08-21T15:25:32;100268.66;;;24.93;41.88
38038;BME280;23843;51.320;12.340;2022-08-21T15:27:59;100273.41;;;24.91;41.07
38038;BME280;23843;51.320;12.340;2022-08-21T15:30:25;100270.03;;;24.89;41.08
38038;BME280;23843;51.320;12.340;2022-08-21T15:32:51;100263.41;;;24.91;41.52
38038;BME280;23843;51.320;12.340;2022-08-21T15:35:16;100274.44;;;24.90;40.35
38038;BME280;23843;51.320;12.340;2022-08-21T15:37:42;100275.75;;;24.94;41.34
38038;BME280;23843;51.320;12.340;2022-08-21T15:40:08;100274.38;;;24.98;40.63
38038;BME280;23843;51.320;12.340;2022-08-21T15:42:34;100266.25;;;24.98;41.19
38038;BME280;23843;51.320;12.340;2022-08-21T15:45:02;100270.28;;;25.02;41.89
38038;BME280;23843;51.320;12.340;2022-08-21T15:47:31;100270.59;;;25.07;41.51
38038;BME280;23843;51.320;12.340;2022-08-21T15:49:57;100272.94;;;25.10;41.83
38038;BME280;23843;51.320;12.340;2022-08-21T15:52:22;100269.41;;;25.10;41.39
38038;BME280;23843;51.320;12.340;2022-08-21T15:54:49;100264.31;;;25.07;41.57
38038;BME280;23843;51.320;12.340;2022-08-21T15:57:20;100264.16;;;25.08;41.29
38038;BME280;23843;51.320;12.340;2022-08-21T15:59:48;100267.03;;;25.07;41.97
38038;BME280;23843;51.320;12.340;2022-08-21T16:02:17;100268.34;;;25.11;42.35
38038;BME280;23843;51.320;12.340;2022-08-21T16:04:43;100267.81;;;25.15;41.30
38038;BME280;23843;51.320;12.340;2022-08-21T16:07:09;100267.81;;;25.15;41.58
38038;BME280;23843;51.320;12.340;2022-08-21T16:09:34;100251.56;;;25.15;41.55
38038;BME280;23843;51.320;12.340;2022-08-21T16:12:00;100255.94;;;25.16;41.75
38038;BME280;23843;51.320;12.340;2022-08-21T16:14:28;100257.69;;;25.17;41.56
38038;BME280;23843;51.320;12.340;2022-08-21T16:16:57;100253.22;;;25.16;41.36
38038;BME280;23843;51.320;12.340;2022-08-21T16:19:25;100254.81;;;25.11;41.02
38038;BME280;23843;51.320;12.340;2022-08-21T16:21:50;100256.00;;;25.08;40.57
38038;BME280;23843;51.320;12.340;2022-08-21T16:24:16;100255.41;;;24.98;40.05
38038;BME280;23843;51.320;12.340;2022-08-21T16:26:41;100255.78;;;24.95;40.77
38038;BME280;23843;51.320;12.340;2022-08-21T16:29:07;100258.88;;;24.84;39.95
38038;BME280;23843;51.320;12.340;2022-08-21T16:31:32;100250.09;;;24.82;40.07
38038;BME280;23843;51.320;12.340;2022-08-21T16:33:58;100255.34;;;24.75;40.37
38038;BME280;23843;51.320;12.340;2022-08-21T16:36:26;100249.59;;;24.78;40.97
38038;BME280;23843;51.320;12.340;2022-08-21T16:38:51;100244.66;;;24.82;41.54
38038;BME280;23843;51.320;12.340;2022-08-21T16:41:17;100249.72;;;24.85;40.45
38038;BME280;23843;51.320;12.340;2022-08-21T16:43:45;100248.03;;;24.84;41.02
38038;BME280;23843;51.320;12.340;2022-08-21T16:46:13;100247.38;;;24.82;40.87
38038;BME280;23843;51.320;12.340;2022-08-21T16:48:40;100254.19;;;24.77;40.57
38038;BME280;23843;51.320;12.340;2022-08-21T16:51:07;100247.44;;;24.73;40.69
38038;BME280;23843;51.320;12.340;2022-08-21T16:53:33;100242.00;;;24.73;41.61
38038;BME280;23843;51.320;12.340;2022-08-21T16:55:59;100253.53;;;24.67;40.62
38038;BME280;23843;51.320;12.340;2022-08-21T16:58:29;100253.53;;;24.67;41.85
38038;BME280;23843;51.320;12.340;2022-08-21T17:00:57;100249.84;;;24.68;42.23
38038;BME280;23843;51.320;12.340;2022-08-21T17:03:27;100241.41;;;24.63;41.37
38038;BME280;23843;51.320;12.340;2022-08-21T17:05:54;100245.09;;;24.62;41.68
38038;BME280;23843;51.320;12.340;2022-08-21T17:08:19;100243.59;;;24.60;41.75
38038;BME280;23843;51.320;12.340;2022-08-21T17:13:13;100250.94;;;24.51;41.72
38038;BME280;23843;51.320;12.340;2022-08-21T17:15:39;100247.34;;;24.50;42.14
38038;BME280;23843;51.320;12.340;2022-08-21T17:18:07;100244.00;;;24.48;41.17
38038;BME280;23843;51.320;12.340;2022-08-21T17:20:33;100250.09;;;24.42;41.27
38038;BME280;23843;51.320;12.340;2022-08-21T17:22:59;100242.13;;;24.41;41.72
38038;BME280;23843;51.320;12.340;2022-08-21T17:25:25;100244.50;;;24.35;41.73